createdAt,value
2019-03-17T00:02:21.413Z,9.28
2019-03-17T00:04:55.383Z,9.32
2019-03-17T00:07:26.127Z,9.23
2019-03-17T00:09:56.911Z,9.26
2019-03-17T00:12:31.397Z,9.25
2019-03-17T00:15:05.460Z,9.28
2019-03-17T00:17:34.117Z,9.30
2019-03-17T00:20:06.584Z,9.32
2019-03-17T00:22:36.961Z,9.32
2019-03-17T00:25:09.729Z,9.32
2019-03-17T00:27:40.117Z,9.30
2019-03-17T00:30:12.727Z,9.42
2019-03-17T00:32:43.658Z,9.28
2019-03-17T00:35:14.472Z,9.46
2019-03-17T00:37:45.295Z,9.33
2019-03-17T00:40:16.129Z,9.31
2019-03-17T00:42:46.510Z,9.28
2019-03-17T00:45:17.273Z,9.32
2019-03-17T00:47:48.004Z,9.29
2019-03-17T00:50:18.555Z,9.31
2019-03-17T00:52:48.997Z,9.33
2019-03-17T00:55:19.962Z,9.31
2019-03-17T00:57:50.648Z,9.30
2019-03-17T01:00:21.448Z,9.31
2019-03-17T01:02:52.331Z,9.30
2019-03-17T01:05:23.300Z,9.30
2019-03-17T01:07:54.087Z,9.26
2019-03-17T01:10:24.671Z,9.35
2019-03-17T01:12:55.721Z,9.32
2019-03-17T01:15:26.536Z,9.30
2019-03-17T01:17:57.330Z,9.46
2019-03-17T01:20:27.714Z,9.32
2019-03-17T01:22:58.511Z,9.46
2019-03-17T01:25:29.442Z,9.36
2019-03-17T01:28:00.178Z,9.39
2019-03-17T01:30:30.912Z,9.36
2019-03-17T01:33:01.643Z,9.37
2019-03-17T01:35:32.821Z,9.40
2019-03-17T01:38:03.823Z,9.34
2019-03-17T01:40:34.455Z,9.46
2019-03-17T01:43:05.193Z,9.36
2019-03-17T01:45:36.031Z,9.33
2019-03-17T01:48:06.387Z,9.36
2019-03-17T01:50:36.783Z,9.33
2019-03-17T01:53:07.561Z,9.31
2019-03-17T01:55:38.347Z,9.59
2019-03-17T01:58:09.577Z,9.30
2019-03-17T02:00:40.541Z,9.30
2019-03-17T02:03:11.270Z,9.32
2019-03-17T02:05:42.115Z,9.42
2019-03-17T02:08:12.959Z,9.32
2019-03-17T02:10:43.416Z,9.30
2019-03-17T02:13:17.904Z,9.30
2019-03-17T02:15:48.951Z,9.29
2019-03-17T02:18:19.651Z,9.48
2019-03-17T02:20:51.984Z,9.41
2019-03-17T02:23:22.973Z,9.49
2019-03-17T02:25:53.767Z,9.37
2019-03-17T02:28:25.803Z,9.31
2019-03-17T02:30:56.150Z,9.38
2019-03-17T02:33:26.944Z,9.52
2019-03-17T02:36:00.359Z,9.36
2019-03-17T02:38:31.173Z,9.37
2019-03-17T02:41:01.678Z,9.40
2019-03-17T02:43:32.446Z,9.38
2019-03-17T02:46:03.186Z,9.35
2019-03-17T02:48:33.710Z,9.31
2019-03-17T02:51:04.460Z,9.32
2019-03-17T02:53:35.369Z,9.38
2019-03-17T02:56:06.238Z,9.32
2019-03-17T02:58:37.077Z,9.32
2019-03-17T03:01:15.719Z,9.29
2019-03-17T03:03:46.505Z,9.32
2019-03-17T03:06:16.881Z,9.44
2019-03-17T03:08:47.677Z,9.41
2019-03-17T03:11:18.410Z,9.40
2019-03-17T03:13:49.646Z,9.34
2019-03-17T03:16:20.429Z,9.34
2019-03-17T03:18:51.668Z,9.32
2019-03-17T03:21:22.474Z,9.32
2019-03-17T03:23:53.325Z,9.29
2019-03-17T03:26:24.168Z,9.33
2019-03-17T03:28:54.969Z,9.27
2019-03-17T03:31:25.839Z,9.30
2019-03-17T03:33:56.682Z,9.44
2019-03-17T03:36:27.518Z,9.32
2019-03-17T03:38:57.985Z,9.36
2019-03-17T03:41:28.756Z,9.36
2019-03-17T03:44:00.087Z,9.32
2019-03-17T03:46:30.754Z,9.30
2019-03-17T03:49:01.714Z,9.28
2019-03-17T03:51:32.558Z,9.27
2019-03-17T03:54:03.443Z,9.34
2019-03-17T03:56:33.970Z,9.30
2019-03-17T03:59:04.826Z,9.28
2019-03-17T04:01:36.237Z,9.29
2019-03-17T04:04:07.110Z,9.30
2019-03-17T04:06:40.230Z,9.30
2019-03-17T04:09:10.943Z,9.30
2019-03-17T04:11:41.819Z,9.28
2019-03-17T04:14:12.589Z,9.20
2019-03-17T04:16:43.350Z,9.18
2019-03-17T04:19:14.202Z,9.26
2019-03-17T04:21:44.995Z,9.24
2019-03-17T04:24:15.779Z,9.28
2019-03-17T04:26:46.286Z,9.17
2019-03-17T04:29:17.516Z,9.15
2019-03-17T04:31:48.431Z,9.16
2019-03-17T04:34:19.311Z,9.18
2019-03-17T04:36:50.195Z,9.20
2019-03-17T04:39:21.308Z,9.16
2019-03-17T04:41:52.197Z,9.23
2019-03-17T04:44:22.943Z,9.14
2019-03-17T04:46:53.376Z,9.10
2019-03-17T04:49:24.118Z,9.10
2019-03-17T04:51:54.840Z,9.17
2019-03-17T04:54:25.607Z,9.12
2019-03-17T04:56:56.055Z,9.06
2019-03-17T04:59:26.815Z,9.08
2019-03-17T05:01:57.188Z,9.07
2019-03-17T05:04:27.994Z,9.17
2019-03-17T05:06:58.742Z,9.14
2019-03-17T05:09:29.457Z,9.16
2019-03-17T05:12:00.206Z,9.08
2019-03-17T05:14:30.922Z,9.10
2019-03-17T05:17:01.659Z,9.14
2019-03-17T05:19:32.394Z,9.22
2019-03-17T05:22:03.134Z,9.08
2019-03-17T05:24:34.009Z,9.15
2019-03-17T05:27:04.815Z,9.14
2019-03-17T05:29:35.567Z,9.19
2019-03-17T05:32:06.540Z,9.41
2019-03-17T05:34:37.222Z,9.22
2019-03-17T05:37:07.994Z,9.30
2019-03-17T05:39:38.895Z,9.27
2019-03-17T05:42:10.241Z,9.26
2019-03-17T05:44:41.013Z,9.24
2019-03-17T05:47:12.026Z,9.32
2019-03-17T05:49:42.529Z,9.34
2019-03-17T05:52:13.280Z,9.29
2019-03-17T05:54:44.166Z,9.28
2019-03-17T05:57:14.974Z,9.46
2019-03-17T05:59:45.855Z,9.28
2019-03-17T06:02:16.800Z,9.26
2019-03-17T06:04:47.377Z,9.30
2019-03-17T06:07:19.174Z,9.43
2019-03-17T06:09:50.080Z,9.33
2019-03-17T06:12:22.648Z,9.34
2019-03-17T06:14:53.486Z,9.61
2019-03-17T06:17:24.314Z,9.42
2019-03-17T06:19:55.172Z,9.30
2019-03-17T06:22:26.008Z,9.28
2019-03-17T06:24:56.801Z,9.31
2019-03-17T06:27:27.243Z,9.36
2019-03-17T06:29:57.704Z,9.46
2019-03-17T06:32:28.110Z,9.50
2019-03-17T06:34:58.920Z,9.44
2019-03-17T06:37:31.215Z,9.46
2019-03-17T06:40:01.781Z,9.50
2019-03-17T06:42:32.564Z,9.55
2019-03-17T06:45:03.316Z,9.54
2019-03-17T06:47:34.169Z,9.69
2019-03-17T06:50:13.192Z,9.60
2019-03-17T06:52:45.532Z,9.60
2019-03-17T06:55:18.652Z,9.69
2019-03-17T06:57:49.202Z,9.67
2019-03-17T07:00:19.985Z,9.90
2019-03-17T07:02:50.391Z,9.84
2019-03-17T07:05:20.758Z,9.76
2019-03-17T07:07:51.469Z,9.68
2019-03-17T07:10:22.275Z,9.82
2019-03-17T07:12:52.961Z,9.90
2019-03-17T07:15:23.431Z,9.61
2019-03-17T07:17:54.199Z,9.82
2019-03-17T07:20:24.679Z,9.53
2019-03-17T07:22:55.478Z,9.52
2019-03-17T07:25:26.353Z,9.50
2019-03-17T07:27:56.752Z,9.56
2019-03-17T07:30:27.587Z,9.46
2019-03-17T07:32:58.091Z,9.53
2019-03-17T07:35:28.943Z,9.52
2019-03-17T07:37:59.715Z,9.52
2019-03-17T07:40:30.422Z,9.64
2019-03-17T07:43:01.145Z,9.74
2019-03-17T07:45:31.612Z,9.46
2019-03-17T07:48:02.509Z,9.52
2019-03-17T07:50:33.274Z,9.63
2019-03-17T07:53:04.214Z,9.66
2019-03-17T07:55:35.592Z,9.76
2019-03-17T07:58:06.487Z,10.04
2019-03-17T08:00:39.881Z,9.92
2019-03-17T08:03:10.650Z,9.86
2019-03-17T08:05:41.471Z,10.07
2019-03-17T08:08:12.402Z,10.04
2019-03-17T08:10:43.219Z,10.28
2019-03-17T08:13:14.209Z,10.13
2019-03-17T08:15:45.000Z,10.45
2019-03-17T08:18:15.735Z,10.33
2019-03-17T08:20:46.473Z,10.50
2019-03-17T08:23:17.217Z,10.30
2019-03-17T08:25:48.151Z,10.52
2019-03-17T08:28:18.997Z,10.60
2019-03-17T08:30:53.497Z,10.72
2019-03-17T08:33:22.305Z,10.70
2019-03-17T08:35:53.053Z,10.80
2019-03-17T08:38:23.791Z,11.02
2019-03-17T08:40:54.782Z,10.96
2019-03-17T08:43:25.598Z,11.09
2019-03-17T08:45:56.382Z,11.26
2019-03-17T08:48:27.204Z,11.44
2019-03-17T08:50:57.947Z,11.41
2019-03-17T08:53:28.795Z,11.34
2019-03-17T08:55:59.625Z,11.27
2019-03-17T08:58:30.533Z,11.45
2019-03-17T09:01:01.403Z,11.38
2019-03-17T09:03:31.857Z,11.34
2019-03-17T09:06:02.661Z,11.58
2019-03-17T09:08:35.304Z,11.61
2019-03-17T09:11:05.917Z,11.59
2019-03-17T09:13:36.687Z,11.76
2019-03-17T09:16:07.536Z,11.74
2019-03-17T09:18:38.386Z,11.68
2019-03-17T09:21:09.225Z,11.78
2019-03-17T09:23:42.511Z,12.76
2019-03-17T09:26:12.248Z,13.02
2019-03-17T09:28:44.595Z,12.74
2019-03-17T09:31:15.419Z,12.63
2019-03-17T09:33:45.913Z,12.38
2019-03-17T09:36:16.707Z,12.30
2019-03-17T09:38:47.821Z,12.36
2019-03-17T09:41:18.793Z,12.40
2019-03-17T09:43:49.649Z,12.26
2019-03-17T09:46:20.548Z,12.03
2019-03-17T09:48:51.070Z,12.06
2019-03-17T09:51:21.927Z,12.54
2019-03-17T09:53:53.178Z,12.48
2019-03-17T09:56:23.931Z,12.74
2019-03-17T09:58:54.717Z,12.70
2019-03-17T10:01:25.471Z,12.94
2019-03-17T10:03:56.303Z,13.02
2019-03-17T10:06:27.149Z,12.88
2019-03-17T10:09:00.327Z,12.76
2019-03-17T10:11:30.385Z,12.89
2019-03-17T10:14:01.190Z,12.96
2019-03-17T10:16:31.654Z,12.78
2019-03-17T10:19:02.464Z,12.98
2019-03-17T10:21:33.668Z,12.67
2019-03-17T10:27:48.523Z,12.82
2019-03-17T10:30:20.986Z,12.86
2019-03-17T10:32:51.514Z,12.74
2019-03-17T10:35:23.978Z,12.95
2019-03-17T10:37:54.812Z,12.87
2019-03-17T10:40:25.536Z,12.66
2019-03-17T10:42:56.519Z,12.73
2019-03-17T10:45:27.310Z,12.78
2019-03-17T10:47:59.382Z,13.03
2019-03-17T10:50:30.252Z,13.04
2019-03-17T10:53:03.706Z,13.23
2019-03-17T10:55:34.539Z,13.10
2019-03-17T10:58:05.295Z,13.06
2019-03-17T11:00:37.692Z,12.92
2019-03-17T11:03:08.905Z,13.20
2019-03-17T11:05:39.690Z,13.28
2019-03-17T11:08:10.746Z,13.20
2019-03-17T11:10:41.265Z,13.10
2019-03-17T11:13:12.212Z,13.10
2019-03-17T11:15:43.134Z,13.13
2019-03-17T11:18:22.800Z,13.11
2019-03-17T11:20:56.162Z,13.21
2019-03-17T11:23:28.118Z,13.24
2019-03-17T11:25:58.932Z,13.37
2019-03-17T11:28:30.423Z,13.33
2019-03-17T11:34:00.293Z,13.32
2019-03-17T11:36:31.159Z,13.27
2019-03-17T11:39:02.116Z,13.24
2019-03-17T11:41:33.026Z,13.36
2019-03-17T11:44:03.603Z,13.24
2019-03-17T11:46:34.590Z,13.02
2019-03-17T11:49:05.563Z,13.02
2019-03-17T11:51:37.054Z,12.82
2019-03-17T11:54:07.931Z,12.60
2019-03-17T11:56:38.659Z,12.74
2019-03-17T11:59:09.398Z,12.61
2019-03-17T12:01:40.336Z,12.70
2019-03-17T12:04:11.176Z,12.70
2019-03-17T12:06:41.745Z,12.62
2019-03-17T12:09:12.672Z,12.43
2019-03-17T12:11:43.596Z,12.34
2019-03-17T12:14:14.447Z,12.40
2019-03-17T12:16:44.838Z,12.46
2019-03-17T12:19:15.514Z,12.44
2019-03-17T12:21:46.308Z,12.72
2019-03-17T12:24:17.249Z,12.64
2019-03-17T12:26:48.089Z,12.72
2019-03-17T12:29:19.328Z,12.98
2019-03-17T12:31:50.089Z,12.72
2019-03-17T12:34:28.114Z,12.78
2019-03-17T12:36:53.413Z,12.61
2019-03-17T12:39:24.210Z,12.78
2019-03-17T12:41:54.946Z,12.56
2019-03-17T12:44:25.903Z,12.40
2019-03-17T12:46:56.846Z,12.29
2019-03-17T12:49:27.674Z,12.30
2019-03-17T12:51:58.419Z,12.14
2019-03-17T12:54:29.232Z,12.04
2019-03-17T12:57:00.026Z,11.00
2019-03-17T12:59:30.909Z,10.06
2019-03-17T13:02:01.751Z,9.36
2019-03-17T13:04:32.482Z,9.00
2019-03-17T13:07:03.334Z,8.76
2019-03-17T13:09:34.334Z,8.62
2019-03-17T13:12:05.108Z,8.44
2019-03-17T13:14:35.927Z,8.34
2019-03-17T13:17:06.778Z,8.16
2019-03-17T13:19:37.551Z,8.16
2019-03-17T13:22:08.322Z,8.20
2019-03-17T13:24:39.077Z,8.04
2019-03-17T13:27:10.329Z,8.00
2019-03-17T13:29:41.372Z,7.96
2019-03-17T13:32:11.892Z,7.94
2019-03-17T13:34:44.036Z,7.92
2019-03-17T13:37:14.899Z,7.78
2019-03-17T13:39:46.768Z,7.81
2019-03-17T13:42:17.243Z,7.76
2019-03-17T13:44:48.032Z,7.63
2019-03-17T13:47:18.979Z,7.70
2019-03-17T13:49:49.929Z,7.64
2019-03-17T13:52:20.921Z,7.67
2019-03-17T13:54:51.768Z,7.60
2019-03-17T13:57:22.855Z,7.68
2019-03-17T13:59:53.777Z,7.82
2019-03-17T14:02:26.959Z,7.66
2019-03-17T14:04:57.919Z,7.76
2019-03-17T14:07:28.701Z,7.74
2019-03-17T14:09:59.689Z,7.86
2019-03-17T14:12:30.529Z,7.78
2019-03-17T14:15:05.476Z,7.93
2019-03-17T14:17:36.075Z,7.86
2019-03-17T14:20:15.535Z,8.00
2019-03-17T14:22:46.459Z,8.12
2019-03-17T14:25:25.820Z,7.93
2019-03-17T14:27:56.632Z,7.90
2019-03-17T14:30:27.635Z,7.88
2019-03-17T14:32:58.607Z,7.96
2019-03-17T14:35:29.494Z,8.04
2019-03-17T14:38:00.632Z,7.92
2019-03-17T14:40:31.517Z,7.92
2019-03-17T14:43:03.936Z,7.94
2019-03-17T14:45:34.936Z,8.01
2019-03-17T14:48:05.819Z,7.94
2019-03-17T14:50:36.709Z,7.96
2019-03-17T14:53:07.889Z,8.18
2019-03-17T14:55:38.713Z,8.12
2019-03-17T14:58:09.709Z,8.23
2019-03-17T15:00:43.887Z,8.18
2019-03-17T15:03:14.666Z,8.22
2019-03-17T15:05:48.333Z,8.13
2019-03-17T15:08:18.727Z,8.14
2019-03-17T15:10:49.649Z,8.25
2019-03-17T15:13:20.401Z,8.22
2019-03-17T15:16:02.337Z,8.21
2019-03-17T15:18:23.783Z,8.36
2019-03-17T15:20:54.548Z,8.35
2019-03-17T15:23:25.453Z,8.40
2019-03-17T15:25:56.186Z,8.42
2019-03-17T15:28:26.588Z,8.48
2019-03-17T15:31:11.032Z,8.39
2019-03-17T15:33:30.039Z,8.32
2019-03-17T15:36:00.878Z,8.48
2019-03-17T15:38:31.763Z,8.53
2019-03-17T15:41:04.086Z,8.53
2019-03-17T15:43:34.969Z,8.65
2019-03-17T15:46:08.820Z,8.62
2019-03-17T15:48:39.588Z,9.45
2019-03-17T15:51:19.588Z,10.07
2019-03-17T15:53:43.295Z,9.78
2019-03-17T15:56:16.591Z,9.53
2019-03-17T15:58:47.429Z,9.26
2019-03-17T16:01:19.803Z,9.02
2019-03-17T16:03:50.659Z,8.92
2019-03-17T16:06:21.368Z,8.86
2019-03-17T16:08:52.323Z,8.62
2019-03-17T16:11:30.792Z,8.58
2019-03-17T16:13:54.924Z,8.60
2019-03-17T16:16:25.925Z,8.57
2019-03-17T16:18:56.786Z,8.50
2019-03-17T16:21:28.827Z,8.34
2019-03-17T16:23:59.695Z,8.52
2019-03-17T16:26:30.548Z,8.55
2019-03-17T16:29:01.235Z,8.54
2019-03-17T16:31:34.530Z,8.55
2019-03-17T16:34:05.380Z,8.54
2019-03-17T16:36:36.199Z,8.50
2019-03-17T16:39:08.293Z,8.54
2019-03-17T16:41:43.697Z,8.46
2019-03-17T16:44:11.653Z,8.49
2019-03-17T16:46:42.536Z,8.46
2019-03-17T16:49:13.381Z,8.40
2019-03-17T16:51:44.319Z,8.41
2019-03-17T16:54:15.022Z,8.46
2019-03-17T16:56:46.979Z,8.46
2019-03-17T16:59:18.099Z,8.44
2019-03-17T17:01:49.079Z,8.50
2019-03-17T17:04:21.976Z,8.43
2019-03-17T17:06:54.039Z,8.47
2019-03-17T17:09:24.867Z,8.27
2019-03-17T17:11:57.388Z,8.18
2019-03-17T17:14:27.791Z,7.90
2019-03-17T17:16:58.623Z,7.71
2019-03-17T17:19:29.553Z,7.62
2019-03-17T17:22:00.504Z,7.51
2019-03-17T17:24:34.112Z,7.54
2019-03-17T17:27:04.967Z,7.57
2019-03-17T17:29:35.774Z,7.40
2019-03-17T17:32:06.676Z,7.38
2019-03-17T17:34:37.432Z,7.30
2019-03-17T17:37:08.287Z,7.39
2019-03-17T17:39:39.110Z,7.42
2019-03-17T17:42:10.470Z,7.34
2019-03-17T17:44:42.931Z,7.38
2019-03-17T17:47:15.618Z,7.38
2019-03-17T17:49:46.445Z,7.21
2019-03-17T17:52:21.662Z,7.24
2019-03-17T17:54:58.465Z,7.15
2019-03-17T17:57:29.220Z,7.11
2019-03-17T18:00:02.517Z,7.16
2019-03-17T18:02:33.440Z,7.03
2019-03-17T18:05:05.960Z,7.02
2019-03-17T18:07:39.728Z,7.13
2019-03-17T18:10:13.033Z,7.00
2019-03-17T18:12:44.255Z,7.07
2019-03-17T18:15:21.182Z,6.98
2019-03-17T18:17:52.616Z,6.94
2019-03-17T18:20:23.583Z,6.98
2019-03-17T18:22:54.675Z,7.00
2019-03-17T18:25:28.334Z,7.01
2019-03-17T18:28:00.727Z,7.00
2019-03-17T18:30:34.988Z,6.94
2019-03-17T18:33:08.641Z,7.01
2019-03-17T18:35:40.955Z,6.96
2019-03-17T18:38:11.868Z,7.02
2019-03-17T18:40:42.543Z,6.98
2019-03-17T18:43:13.436Z,6.94
2019-03-17T18:45:52.424Z,6.86
2019-03-17T18:48:23.224Z,6.98
2019-03-17T18:50:53.961Z,6.89
2019-03-17T18:53:24.845Z,6.89
2019-03-17T18:55:55.652Z,7.05
2019-03-17T18:58:26.465Z,6.85
2019-03-17T19:00:57.349Z,6.78
2019-03-17T19:03:28.012Z,6.80
2019-03-17T19:05:59.159Z,6.76
2019-03-17T19:08:30.171Z,6.78
2019-03-17T19:11:01.149Z,6.72
2019-03-17T19:13:32.555Z,6.76
2019-03-17T19:16:03.567Z,6.69
2019-03-17T19:18:34.619Z,6.60
2019-03-17T19:21:05.419Z,6.66
2019-03-17T19:23:36.252Z,6.64
2019-03-17T19:26:07.167Z,6.76
2019-03-17T19:28:37.983Z,6.77
2019-03-17T19:31:08.777Z,6.79
2019-03-17T19:33:39.619Z,6.90
2019-03-17T19:36:10.331Z,6.73
2019-03-17T19:38:45.292Z,6.80
2019-03-17T19:41:15.103Z,6.72
2019-03-17T19:43:48.221Z,6.73
2019-03-17T19:46:19.325Z,6.59
2019-03-17T19:48:49.862Z,6.57
2019-03-17T19:51:20.615Z,6.66
2019-03-17T19:53:51.442Z,6.57
2019-03-17T19:56:22.291Z,6.51
2019-03-17T19:58:53.318Z,6.44
2019-03-17T20:01:24.456Z,6.44
2019-03-17T20:03:56.923Z,6.40
2019-03-17T20:06:27.760Z,6.48
2019-03-17T20:08:58.600Z,6.48
2019-03-17T20:11:29.426Z,6.53
2019-03-17T20:14:00.308Z,6.58
2019-03-17T20:16:30.774Z,6.48
2019-03-17T20:19:03.988Z,6.52
2019-03-17T20:21:36.478Z,6.39
2019-03-17T20:24:06.901Z,6.41
2019-03-17T20:26:37.432Z,6.46
2019-03-17T20:29:08.285Z,6.48
2019-03-17T20:31:39.121Z,6.52
2019-03-17T20:34:09.949Z,6.48
2019-03-17T20:36:40.859Z,6.41
2019-03-17T20:39:11.751Z,6.46
2019-03-17T20:41:42.866Z,6.32
2019-03-17T20:44:13.949Z,6.41
2019-03-17T20:46:44.883Z,6.39
2019-03-17T20:49:15.746Z,6.32
2019-03-17T20:51:46.492Z,6.31
2019-03-17T20:54:18.831Z,6.23
2019-03-17T20:56:49.704Z,6.30
2019-03-17T20:59:20.556Z,6.28
2019-03-17T21:01:52.009Z,6.14
2019-03-17T21:04:22.988Z,6.16
2019-03-17T21:06:53.936Z,6.11
2019-03-17T21:09:24.819Z,6.18
2019-03-17T21:11:58.773Z,6.12
2019-03-17T21:14:31.012Z,6.14
2019-03-17T21:17:01.840Z,6.02
2019-03-17T21:19:32.606Z,6.02
2019-03-17T21:22:03.448Z,6.07
2019-03-17T21:24:34.420Z,6.00
2019-03-17T21:27:04.955Z,5.97
2019-03-17T21:29:35.825Z,5.98
2019-03-17T21:32:06.914Z,6.03
2019-03-17T21:34:37.291Z,6.08
2019-03-17T21:37:08.120Z,6.04
2019-03-17T21:39:39.147Z,6.00
2019-03-17T21:42:09.943Z,5.92
2019-03-17T21:44:40.850Z,5.88
2019-03-17T21:47:11.666Z,5.84
2019-03-17T21:49:42.481Z,5.90
2019-03-17T21:52:14.790Z,6.04
2019-03-17T21:54:45.905Z,5.90
2019-03-17T21:57:16.833Z,5.90
2019-03-17T21:59:47.574Z,5.85
2019-03-17T22:02:18.055Z,5.79
2019-03-17T22:04:49.046Z,5.83
2019-03-17T22:07:21.473Z,5.78
2019-03-17T22:09:53.625Z,5.80
2019-03-17T22:12:24.547Z,5.78
2019-03-17T22:14:55.527Z,5.84
2019-03-17T22:17:26.502Z,5.88
2019-03-17T22:19:57.561Z,5.80
2019-03-17T22:22:28.390Z,5.90
2019-03-17T22:24:59.120Z,5.88
2019-03-17T22:27:29.890Z,5.84
2019-03-17T22:30:00.516Z,5.82
2019-03-17T22:32:31.410Z,5.82
2019-03-17T22:35:02.242Z,5.70
2019-03-17T22:37:33.031Z,5.70
2019-03-17T22:40:04.959Z,5.76
2019-03-17T22:42:35.771Z,5.80
2019-03-17T22:45:16.249Z,5.82
2019-03-17T22:47:48.218Z,5.77
2019-03-17T22:50:22.603Z,5.71
2019-03-17T22:52:53.417Z,5.76
2019-03-17T22:55:24.352Z,5.80
2019-03-17T22:57:55.591Z,5.70
2019-03-17T23:00:33.567Z,5.84
2019-03-17T23:03:06.282Z,5.76
2019-03-17T23:05:38.985Z,5.68
2019-03-17T23:08:09.637Z,5.77
2019-03-17T23:10:41.923Z,5.76
2019-03-17T23:13:12.645Z,5.73
2019-03-17T23:15:43.412Z,5.76
2019-03-17T23:18:14.237Z,5.68
2019-03-17T23:20:44.968Z,5.60
2019-03-17T23:23:15.719Z,5.74
2019-03-17T23:25:46.542Z,5.75
2019-03-17T23:28:17.275Z,5.58
2019-03-17T23:30:48.212Z,5.64
2019-03-17T23:33:18.673Z,5.68
2019-03-17T23:35:49.482Z,5.62
2019-03-17T23:38:20.409Z,5.55
2019-03-17T23:40:51.245Z,5.54
2019-03-17T23:43:22.115Z,5.62
2019-03-17T23:45:52.888Z,5.56
2019-03-17T23:48:23.658Z,5.56
2019-03-17T23:50:54.499Z,5.58
2019-03-17T23:53:25.355Z,5.58
2019-03-17T23:55:55.739Z,5.56
2019-03-17T23:58:26.203Z,5.64
